Latest Weather Observations for Fortescue Dave Forrest

IDW60801

Issued at 11:32 am WST Saturday 28 March 2015 (issued every 30 minutes, with the page automatically refreshed every 10 minutes)

About weather observations | Map of weather stations | Latest weather observations for WA | Other Formats
Station Details ID: 505056 Name: FORTESCUE DAVE FORREST Lat: -22.29 Lon: 119.43 Height: 474.6 m
Data from the previous 72 hours. | See also: Recent months for locations in Western Australia
Date/Time
WST
Temp
°C
App
Temp
°C
Dew
Point
Rel
Hum
%
Delta-T
°C
Wind Press
QNH
hPa
Press
MSL
hPa
Rain
since 9 am
mm
Dir
 
Spd
km/h
Gust
km/h
Spd
kts
Gust
kts
28/11:30am 30.2 26.5 12.8 34 10.5 SE 24 35 13 19 1017.6 1014.2 0.0
28/11:00am 28.8 25.2 13.0 37 9.5 SE 24 33 13 18 1018.3 1014.9 0.0
28/10:30am 28.2 24.2 13.1 39 9.1 SE 26 39 14 21 1018.5 1015.1 0.0
28/10:00am 27.9 24.0 13.4 40 8.7 SE 26 39 14 21 1018.7 1015.3 0.0
28/09:30am 25.8 23.2 13.9 47 7.2 SE 20 30 11 16 1018.8 1015.4 0.0
28/09:00am 25.2 23.1 14.8 52 6.3 SE 19 28 10 15 1018.9 1015.5 0.0
28/08:30am 24.8 22.5 14.7 53 6.1 SE 20 33 11 18 1018.8 1015.4 0.0
28/08:00am 23.5 22.0 15.4 60 5.0 SE 17 28 9 15 1018.7 1015.3 0.0
28/07:30am 22.5 21.1 15.6 65 4.2 SE 17 26 9 14 1018.4 1015.0 0.0
28/07:00am 21.3 20.4 15.8 71 3.4 SE 15 20 8 11 1017.8 1014.4 0.0
28/06:30am 20.5 19.2 15.9 75 2.8 ESE 17 22 9 12 1017.5 1014.1 0.0
28/06:00am 20.4 19.6 16.0 76 2.7 SE 15 20 8 11 1017.6 1014.2 0.0
28/05:30am 20.5 19.6 15.9 75 2.8 SE 15 20 8 11 1017.4 1014.0 0.0
28/05:00am 20.7 20.1 15.7 73 3.0 SE 13 20 7 11 1017.4 1014.0 0.0
28/04:30am 20.9 20.4 15.8 72 3.1 SE 13 19 7 10 1017.2 1013.8 0.0
28/04:00am 21.0 20.8 15.6 71 3.3 SE 11 15 6 8 1017.1 1013.7 0.0
28/03:30am 21.2 21.4 15.7 71 3.4 SE 9 13 5 7 1016.8 1013.4 0.0
28/03:00am 21.5 21.7 15.7 69 3.5 SE 9 13 5 7 1016.9 1013.5 0.0
28/02:30am 22.0 21.1 15.8 68 3.8 SE 15 20 8 11 1017.2 1013.8 0.0
28/02:00am 21.8 22.1 16.0 69 3.6 SE 9 15 5 8 1017.4 1014.0 0.0
28/01:30am 21.7 22.0 15.9 69 3.6 SE 9 13 5 7 1017.6 1014.2 0.0
28/01:00am 21.8 20.8 15.7 68 3.7 ESE 15 19 8 10 1017.3 1013.9 0.0
28/12:30am 21.7 22.4 16.1 70 3.4 SE 7 11 4 6 1018.2 1014.8 0.0
28/12:00am 22.0 22.3 15.9 68 3.7 SSE 9 13 5 7 1018.4 1015.0 0.0
 
Date/Time
WST
Temp
°C
App
Temp
°C
Dew
Point
Rel
Hum
%
Delta-T
°C
Wind Press
QNH
hPa
Press
MSL
hPa
Rain
since 9 am
mm
Dir
 
Spd
km/h
Gust
km/h
Spd
kts
Gust
kts
27/11:30pm 22.0 22.2 15.8 68 3.8 SSE 9 13 5 7 1018.5 1015.1 0.0
27/11:00pm 22.3 22.1 15.7 66 4.0 SSE 11 17 6 9 1018.5 1015.1 0.0
27/10:30pm 22.8 22.5 15.5 63 4.5 S 11 17 6 9 1018.7 1015.3 0.0
27/10:00pm 23.2 23.2 15.1 60 4.9 SSE 9 17 5 9 1018.7 1015.3 0.0
27/09:30pm 23.4 22.1 14.9 59 5.2 SE 15 24 8 13 1018.4 1015.0 0.0
27/09:00pm 23.5 21.8 14.8 58 5.3 SE 17 24 9 13 1018.5 1015.1 0.0
27/08:30pm 23.9 21.7 14.4 55 5.7 SE 19 28 10 15 1018.2 1014.8 0.0
27/08:00pm 24.2 21.7 14.2 53 6.0 SE 20 28 11 15 1017.7 1014.3 0.0
27/07:30pm 24.5 21.5 13.7 51 6.5 SE 22 33 12 18 1017.8 1014.4 0.0
27/07:00pm 24.6 21.7 13.9 51 6.4 SE 22 37 12 20 1018.0 1014.6 0.0
27/06:30pm 24.9 21.9 13.8 50 6.7 SE 22 33 12 18 1017.3 1013.9 0.0
27/06:00pm 25.6 22.3 13.9 48 7.0 SSE 24 37 13 20 1017.2 1013.8 0.0
27/05:30pm 26.4 23.7 13.4 44 7.8 SSE 20 33 11 18 1017.3 1013.9 0.0
27/05:00pm 27.2 23.2 14.0 44 8.0 SSE 28 39 15 21 1017.2 1013.8 0.0
27/04:30pm 27.6 23.1 15.0 46 7.8 S 32 48 17 26 1016.6 1013.2 0.0
27/04:00pm 31.3 26.3 11.1 29 11.9 S 28 46 15 25 1016.2 1012.8 0.0
27/03:59pm 31.7 26.9 11.5 29 12.0 S 28 46 15 25 1016.1 1012.7 0.0
27/03:30pm 31.6 27.2 11.7 29 11.9 SSE 26 39 14 21 1016.0 1012.5 0.0
27/03:00pm 32.3 30.7 12.9 30 11.8 E 13 24 7 13 1015.9 1012.4 0.0
27/02:30pm 32.2 30.5 12.6 30 11.9 ESE 13 22 7 12 1015.8 1012.3 0.0
27/02:00pm 31.9 30.8 13.0 31 11.5 ESE 11 22 6 12 1016.1 1012.7 0.0
27/01:30pm 31.5 30.2 12.5 31 11.5 SSE 11 26 6 14 1016.6 1013.2 0.0
27/01:00pm 30.4 27.9 12.2 32 10.9 ESE 17 26 9 14 1017.0 1013.6 0.0
27/12:30pm 30.7 28.0 11.8 31 11.3 SE 17 24 9 13 1017.5 1014.1 0.0
27/12:00pm 30.7 27.9 11.5 30 11.4 SE 17 28 9 15 1018.3 1014.9 0.0
27/11:30am 29.3 26.5 11.2 32 10.6 SE 17 26 9 14 1018.7 1015.3 0.0
27/11:00am 29.7 26.3 11.1 31 10.9 SE 20 30 11 16 1019.1 1015.7 0.0
27/10:30am 28.8 24.8 10.4 31 10.6 SE 22 39 12 21 1019.2 1015.8 0.0
27/10:00am 27.5 23.0 10.2 34 9.9 SE 24 35 13 19 1019.5 1016.1 0.0
27/09:30am 27.0 23.0 10.4 35 9.5 SE 22 33 12 18 1019.9 1016.6 0.0
27/09:00am 26.1 22.2 10.8 38 8.8 SE 22 33 12 18 1019.9 1016.6 0.0
27/08:30am 25.1 21.7 11.2 41 8.0 SE 20 30 11 16 1020.0 1016.7 0.0
27/08:00am 25.0 21.4 12.0 44 7.6 SE 22 33 12 18 1019.8 1016.4 0.0
27/07:30am 23.0 21.1 13.0 53 5.9 SE 15 24 8 13 1019.5 1016.1 0.0
27/07:00am 21.0 20.9 14.0 64 4.1 SE 7 13 4 7 1019.3 1015.9 0.0
27/06:30am 20.8 21.1 14.4 67 3.8 SE 6 9 3 5 1019.1 1015.7 0.0
27/06:00am 20.7 20.3 14.0 65 4.0 SSE 9 13 5 7 1019.2 1015.8 0.0
27/05:30am 21.0 20.6 14.1 64 4.1 SSE 9 17 5 9 1019.1 1015.7 0.0
27/05:00am 21.3 20.6 14.3 64 4.2 SSE 11 19 6 10 1018.9 1015.5 0.0
27/04:30am 21.5 20.4 14.4 64 4.2 SSE 13 19 7 10 1018.6 1015.2 0.0
27/04:00am 21.7 21.1 14.5 63 4.3 SSE 11 19 6 10 1018.4 1015.0 0.0
27/03:30am 22.2 20.8 14.6 62 4.6 SSE 15 22 8 12 1018.5 1015.1 0.0
27/03:00am 22.4 21.1 14.7 61 4.6 SSE 15 22 8 12 1018.6 1015.2 0.0
27/02:30am 22.8 21.1 14.7 60 4.9 SSE 17 24 9 13 1018.7 1015.3 0.0
27/02:00am 22.6 22.0 14.6 60 4.8 SSE 11 15 6 8 1019.0 1015.6 0.0
27/01:30am 23.6 22.1 14.3 56 5.6 SSE 15 20 8 11 1019.2 1015.8 0.0
27/01:00am 23.9 22.9 14.5 55 5.7 SSE 13 20 7 11 1019.3 1015.9 0.0
27/12:30am 24.6 22.8 14.4 53 6.2 SSE 17 24 9 13 1019.5 1016.1 0.0
27/12:00am 24.9 22.7 14.5 52 6.3 SSE 19 26 10 14 1019.7 1016.3 0.0
 
Date/Time
WST
Temp
°C
App
Temp
°C
Dew
Point
Rel
Hum
%
Delta-T
°C
Wind Press
QNH
hPa
Press
MSL
hPa
Rain
since 9 am
mm
Dir
 
Spd
km/h
Gust
km/h
Spd
kts
Gust
kts
26/11:30pm 25.0 23.3 14.8 53 6.2 SSE 17 24 9 13 1019.7 1016.3 0.0
26/11:00pm 25.0 23.7 14.8 53 6.2 S 15 20 8 11 1019.7 1016.3 0.0
26/10:30pm 25.3 24.0 14.7 51 6.5 S 15 24 8 13 1019.8 1016.4 0.0
26/10:00pm 25.5 24.1 14.5 50 6.7 S 15 22 8 12 1019.7 1016.3 0.0
26/09:30pm 25.9 23.7 14.3 48 7.0 S 19 28 10 15 1019.6 1016.2 0.0
26/09:00pm 26.9 23.3 14.1 45 7.8 SSW 26 41 14 22 1019.3 1015.9 0.0
26/08:45pm 28.0 26.2 14.5 43 8.3 SSW 17 41 9 22 1019.1 1015.7 0.0
26/08:30pm 28.2 27.1 13.1 39 9.1 SSE 11 13 6 7 1019.0 1015.6 0.0
26/08:00pm 28.4 27.5 13.7 40 8.9 ESE 11 17 6 9 1018.8 1015.4 0.0
26/07:30pm 29.0 27.8 12.9 37 9.7 S 11 13 6 7 1018.1 1014.7 0.0
26/07:00pm 30.0 28.6 12.2 33 10.6 S 11 17 6 9 1017.5 1014.1 0.0
26/06:30pm 30.7 28.4 11.8 31 11.3 SSE 15 20 8 11 1017.1 1013.7 0.0
26/06:00pm 31.4 29.5 11.7 29 11.7 SSE 13 20 7 11 1016.8 1013.4 0.0
26/05:30pm 32.3 31.2 11.9 28 12.2 SSE 9 17 5 9 1016.6 1013.2 0.0
26/05:00pm 33.7 32.7 10.4 24 13.7 ESE 6 13 3 7 1016.4 1013.0 0.0
26/04:30pm 34.2 32.8 11.0 24 13.8 SE 9 20 5 11 1016.2 1012.8 0.0
26/04:00pm 33.9 32.1 11.0 24 13.6 ESE 11 22 6 12 1016.2 1012.8 0.0
26/03:30pm 33.7 31.9 10.8 24 13.6 ESE 11 19 6 10 1016.2 1012.8 0.0
26/03:00pm 33.1 30.6 10.9 25 13.2 E 15 20 8 11 1016.3 1012.9 0.0
26/02:30pm 33.7 32.8 11.5 26 13.3 ESE 7 17 4 9 1016.5 1013.1 0.0
26/02:00pm 33.0 31.2 11.0 26 13.0 ENE 11 24 6 13 1016.8 1013.4 0.0
26/01:30pm 32.4 29.8 10.6 26 12.8 ESE 15 28 8 15 1017.0 1013.6 0.0
26/01:00pm 32.4 29.9 11.1 27 12.6 ESE 15 30 8 16 1017.4 1014.0 0.0
26/12:30pm 31.0 28.0 10.5 28 12.0 SE 17 26 9 14 1017.8 1014.4 0.0
26/12:00pm 30.1 26.3 9.9 28 11.6 ESE 20 30 11 16 1018.5 1015.1 0.0
26/11:30am 29.7 26.7 10.6 30 11.1 SE 17 24 9 13 1019.1 1015.7 0.0
26/11:00am 28.8 25.3 10.9 33 10.4 SE 20 32 11 17 1019.4 1016.0 0.0
26/10:30am 27.4 23.6 11.3 36 9.4 SE 22 33 12 18 1019.9 1016.6 0.0
26/10:00am 26.6 22.2 10.5 36 9.2 SE 24 35 13 19 1020.3 1016.9 0.0
26/09:30am 25.4 21.1 10.9 40 8.3 SE 24 33 13 18 1020.4 1017.0 0.0
26/09:00am 24.7 20.4 10.8 41 7.9 ESE 24 33 13 18 1020.5 1017.1 0.0
26/08:30am 23.5 18.9 11.1 45 7.1 SE 26 37 14 20 1020.6 1017.2 0.0
26/08:00am 22.5 19.2 11.0 48 6.5 SE 19 28 10 15 1020.6 1017.2 0.0
26/07:30am 22.0 19.1 11.0 49 6.2 SE 17 28 9 15 1020.0 1016.7 0.0
26/07:00am 22.1 18.6 11.0 49 6.3 SE 20 30 11 16 1019.6 1016.2 0.0
26/06:30am 22.0 18.9 11.7 52 5.9 SE 19 30 10 16 1019.5 1016.1 0.0
26/06:00am 22.0 19.5 12.2 53 5.6 SE 17 26 9 14 1019.2 1015.8 0.0
26/05:30am 22.5 19.8 11.7 50 6.2 SE 17 28 9 15 1018.9 1015.5 0.0
26/05:00am 22.7 20.0 11.8 50 6.3 SE 17 24 9 13 1018.7 1015.3 0.0
26/04:30am 22.6 19.7 12.3 52 6.0 SE 19 30 10 16 1018.4 1015.0 0.0
26/04:00am 22.5 19.9 13.2 55 5.5 SSE 19 28 10 15 1018.3 1014.9 0.0
26/03:30am 22.4 20.4 13.9 58 5.1 SE 17 26 9 14 1017.8 1014.4 0.0
26/03:00am 22.1 20.7 14.6 62 4.5 SSE 15 22 8 12 1017.8 1014.4 0.0
26/02:30am 22.6 21.2 14.5 60 4.9 SE 15 22 8 12 1017.7 1014.3 0.0
26/02:00am 23.3 21.9 14.6 58 5.2 SE 15 22 8 12 1017.7 1014.3 0.0
26/01:30am 23.7 22.3 14.5 56 5.6 SE 15 24 8 13 1017.6 1014.2 0.0
26/01:00am 24.0 22.3 14.8 56 5.6 SE 17 26 9 14 1017.7 1014.3 0.0
26/12:30am 23.2 23.6 16.3 65 4.3 SE 9 11 5 6 1017.8 1014.4 0.0
26/12:00am 23.7 24.2 16.6 64 4.4 SSE 9 11 5 6 1018.1 1014.7 0.0
 
Date/Time
WST
Temp
°C
App
Temp
°C
Dew
Point
Rel
Hum
%
Delta-T
°C
Wind Press
QNH
hPa
Press
MSL
hPa
Rain
since 9 am
mm
Dir
 
Spd
km/h
Gust
km/h
Spd
kts
Gust
kts
25/11:30pm 24.1 24.8 16.1 61 5.0 SE 7 9 4 5 1018.1 1014.7 0.0
25/11:00pm 24.6 24.8 15.7 57 5.5 SE 9 13 5 7 1017.7 1014.3 0.0
25/10:30pm 25.3 25.1 15.8 55 5.9 SE 11 15 6 8 1017.6 1014.2 0.0
25/10:00pm 26.0 26.1 15.5 52 6.5 SE 9 13 5 7 1017.6 1014.2 0.0
25/09:30pm 26.7 25.9 15.1 49 7.2 SE 13 19 7 10 1017.5 1014.1 0.0
25/09:00pm 26.4 26.6 15.7 51 6.6 SE 9 13 5 7 1017.5 1014.1 0.0
25/08:30pm 26.1 26.6 15.5 52 6.6 SE 7 9 4 5 1017.5 1014.1 0.0
25/08:00pm 26.6 26.6 15.1 49 7.1 SSE 9 13 5 7 1017.5 1014.1 0.0
25/07:30pm 27.1 26.6 14.8 47 7.6 SSE 11 15 6 8 1017.1 1013.7 0.0
25/07:00pm 27.5 27.0 14.9 46 7.8 S 11 19 6 10 1016.8 1013.4 0.0
25/06:30pm 27.9 27.3 14.7 44 8.1 SSE 11 17 6 9 1016.4 1013.0 0.0
25/06:00pm 28.6 28.2 14.0 40 8.9 SSE 9 13 5 7 1015.9 1012.4 0.0
25/05:30pm 29.6 28.2 13.3 36 9.9 SE 13 19 7 10 1015.9 1012.4 0.0
25/05:00pm 30.7 29.3 13.3 34 10.6 SE 13 20 7 11 1015.9 1012.4 0.0
25/04:30pm 30.9 28.6 13.1 33 10.8 SE 17 26 9 14 1015.7 1012.2 0.0
25/04:00pm 31.6 30.2 13.4 33 11.1 SSE 13 22 7 12 1015.8 1012.3 0.0
25/03:30pm 30.8 28.6 13.3 34 10.7 SE 17 28 9 15 1015.9 1012.4 0.0
25/03:00pm 30.2 28.2 13.8 36 10.0 ESE 17 24 9 13 1015.9 1012.4 0.0
25/02:30pm 30.0 28.1 14.1 37 9.8 SE 17 26 9 14 1016.1 1012.7 0.0
25/02:00pm 29.8 28.7 15.3 41 9.1 SE 15 24 8 13 1016.3 1012.9 0.0
25/01:30pm 29.8 29.1 16.3 44 8.6 SSE 15 22 8 12 1016.5 1013.1 0.0
25/01:00pm 29.6 28.7 14.8 40 9.2 SSE 13 22 7 12 1016.8 1013.4 0.0
25/12:30pm 28.2 27.1 14.4 42 8.5 SE 13 20 7 11 1017.2 1013.8 0.0
25/12:00pm 26.7 26.1 14.7 47 7.3 ESE 11 19 6 10 1017.6 1014.2 0.0

Other Formats:

Comma delimited format used in spreadsheet applications
http://www.bom.gov.au/fwo/IDW60801/IDW60801.99736.axf

JavaScript Object Notation format (JSON) in row-major order
http://www.bom.gov.au/fwo/IDW60801/IDW60801.99736.json